createdAt,value
2023-03-14T00:01:31.466Z,60.25
2023-03-14T00:03:58.345Z,59.98
2023-03-14T00:06:25.205Z,59.44
2023-03-14T00:08:52.944Z,58.40
2023-03-14T00:11:21.928Z,57.45
2023-03-14T00:13:52.721Z,56.94
2023-03-14T00:16:20.579Z,55.75
2023-03-14T00:18:47.436Z,55.47
2023-03-14T00:21:15.036Z,54.56
2023-03-14T00:23:43.304Z,54.32
2023-03-14T00:26:15.694Z,54.73
2023-03-14T00:28:43.462Z,55.47
2023-03-14T00:31:13.064Z,53.89
2023-03-14T00:33:39.983Z,53.71
2023-03-14T00:36:13.230Z,53.67
2023-03-14T00:38:41.762Z,54.02
2023-03-14T00:41:12.725Z,53.72
2023-03-14T00:43:40.295Z,53.55
2023-03-14T00:46:07.553Z,54.08
2023-03-14T00:48:34.602Z,54.46
2023-03-14T00:51:02.104Z,53.74
2023-03-14T00:53:28.917Z,54.46
2023-03-14T00:55:55.761Z,53.65
2023-03-14T00:58:22.534Z,54.48
2023-03-14T01:00:49.280Z,54.69
2023-03-14T01:03:16.633Z,54.95
2023-03-14T01:05:43.826Z,54.20
2023-03-14T01:08:10.633Z,54.98
2023-03-14T01:10:41.505Z,54.81
2023-03-14T01:13:09.025Z,55.76
2023-03-14T01:15:37.240Z,54.51
2023-03-14T01:18:04.675Z,54.54
2023-03-14T01:20:31.565Z,53.49
2023-03-14T01:22:58.339Z,52.21
2023-03-14T01:25:25.351Z,52.67
2023-03-14T01:27:52.086Z,51.21
2023-03-14T01:30:18.926Z,50.33
2023-03-14T01:32:45.723Z,49.77
2023-03-14T01:35:12.587Z,49.82
2023-03-14T01:37:39.359Z,49.08
2023-03-14T01:40:06.989Z,49.20
2023-03-14T01:42:33.931Z,48.54
2023-03-14T01:45:04.432Z,48.99
2023-03-14T01:47:31.188Z,49.04
2023-03-14T01:50:03.113Z,49.12
2023-03-14T01:52:36.311Z,48.94
2023-03-14T01:55:20.503Z,49.80
2023-03-14T01:58:03.996Z,49.56
2023-03-14T02:00:30.975Z,49.97
2023-03-14T02:03:07.110Z,49.88
2023-03-14T02:05:36.931Z,50.10
2023-03-14T02:08:06.918Z,50.79
2023-03-14T02:10:38.099Z,50.70
2023-03-14T02:13:06.179Z,50.66
2023-03-14T02:15:33.575Z,50.99
2023-03-14T02:18:02.842Z,50.99
2023-03-14T02:20:29.501Z,51.04
2023-03-14T02:22:56.860Z,50.24
2023-03-14T02:25:49.753Z,50.85
2023-03-14T02:28:17.851Z,49.32
2023-03-14T02:30:45.063Z,48.99
2023-03-14T02:33:17.234Z,48.15
2023-03-14T02:35:54.463Z,48.58
2023-03-14T02:38:49.297Z,47.87
2023-03-14T02:41:16.719Z,47.52
2023-03-14T02:43:43.650Z,46.96
2023-03-14T02:46:14.604Z,46.26
2023-03-14T02:48:47.196Z,46.37
2023-03-14T02:51:15.184Z,46.99
2023-03-14T02:53:43.772Z,46.18
2023-03-14T02:56:11.313Z,45.82
2023-03-14T02:58:38.260Z,46.48
2023-03-14T03:01:05.487Z,46.65
2023-03-14T03:03:32.601Z,46.86
2023-03-14T03:05:59.644Z,46.78
2023-03-14T03:08:28.486Z,47.32
2023-03-14T03:10:55.322Z,47.09
2023-03-14T03:13:22.154Z,46.71
2023-03-14T03:15:48.949Z,46.69
2023-03-14T03:18:15.836Z,46.18
2023-03-14T03:20:42.733Z,46.03
2023-03-14T03:23:09.472Z,46.16
2023-03-14T03:25:36.213Z,46.28
2023-03-14T03:28:03.455Z,46.81
2023-03-14T03:30:30.178Z,46.14
2023-03-14T03:32:57.144Z,46.48
2023-03-14T03:35:23.969Z,45.59
2023-03-14T03:37:50.706Z,45.93
2023-03-14T03:40:17.702Z,45.98
2023-03-14T03:42:44.468Z,45.50
2023-03-14T03:45:11.541Z,45.26
2023-03-14T03:47:38.282Z,45.85
2023-03-14T03:50:05.611Z,45.35
2023-03-14T03:52:32.371Z,45.91
2023-03-14T03:54:59.079Z,45.99
2023-03-14T03:57:25.837Z,45.74
2023-03-14T03:59:52.618Z,45.82
2023-03-14T04:02:19.446Z,45.77
2023-03-14T04:04:46.379Z,46.04
2023-03-14T04:07:15.146Z,46.41
2023-03-14T04:09:41.974Z,46.74
2023-03-14T04:12:08.784Z,47.16
2023-03-14T04:14:35.555Z,46.84
2023-03-14T04:17:02.335Z,46.71
2023-03-14T04:19:29.163Z,46.71
2023-03-14T04:21:55.899Z,46.82
2023-03-14T04:24:22.641Z,46.35
2023-03-14T04:26:49.409Z,45.94
2023-03-14T04:29:16.215Z,45.87
2023-03-14T04:31:43.063Z,45.96
2023-03-14T04:34:09.869Z,45.03
2023-03-14T04:36:39.200Z,44.84
2023-03-14T04:39:06.679Z,44.62
2023-03-14T04:41:33.538Z,44.37
2023-03-14T04:44:00.366Z,43.99
2023-03-14T04:46:27.251Z,44.23
2023-03-14T04:48:54.044Z,43.35
2023-03-14T04:51:20.853Z,43.68
2023-03-14T04:53:47.581Z,42.99
2023-03-14T04:56:14.387Z,42.85
2023-03-14T04:58:41.201Z,42.69
2023-03-14T05:01:08.130Z,42.43
2023-03-14T05:03:37.216Z,42.17
2023-03-14T05:06:04.307Z,41.90
2023-03-14T05:08:31.279Z,42.16
2023-03-14T05:10:59.232Z,41.93
2023-03-14T05:13:26.107Z,42.59
2023-03-14T05:15:53.172Z,42.24
2023-03-14T05:18:20.301Z,42.06
2023-03-14T05:20:47.429Z,41.69
2023-03-14T05:23:14.180Z,41.58
2023-03-14T05:25:45.610Z,41.46
2023-03-14T05:28:12.522Z,41.88
2023-03-14T05:30:39.362Z,41.44
2023-03-14T05:33:06.180Z,41.21
2023-03-14T05:35:33.013Z,41.00
2023-03-14T05:37:59.874Z,40.90
2023-03-14T05:40:26.893Z,41.18
2023-03-14T05:42:53.815Z,41.71
2023-03-14T05:45:20.628Z,41.66
2023-03-14T05:47:47.970Z,41.76
2023-03-14T05:50:14.694Z,41.82
2023-03-14T05:52:41.519Z,41.74
2023-03-14T05:55:08.700Z,41.49
2023-03-14T05:57:35.533Z,41.21
2023-03-14T06:00:02.468Z,41.42
2023-03-14T06:02:29.293Z,41.30
2023-03-14T06:04:56.076Z,41.38
2023-03-14T06:07:22.967Z,41.48
2023-03-14T06:09:49.734Z,41.51
2023-03-14T06:12:16.517Z,41.36
2023-03-14T06:14:43.298Z,41.34
2023-03-14T06:17:10.121Z,41.95
2023-03-14T06:19:36.901Z,41.15
2023-03-14T06:22:03.650Z,40.75
2023-03-14T06:24:30.439Z,41.09
2023-03-14T06:26:57.173Z,40.72
2023-03-14T06:29:23.899Z,40.76
2023-03-14T06:31:50.727Z,40.54
2023-03-14T06:34:17.464Z,40.56
2023-03-14T06:36:44.212Z,40.57
2023-03-14T06:39:11.053Z,40.83
2023-03-14T06:41:37.809Z,40.41
2023-03-14T06:44:04.811Z,40.36
2023-03-14T06:46:31.662Z,40.06
2023-03-14T06:48:58.697Z,40.12
2023-03-14T06:51:25.429Z,40.02
2023-03-14T06:53:52.227Z,40.51
2023-03-14T06:56:18.987Z,40.38
2023-03-14T06:58:47.689Z,39.94
2023-03-14T07:01:22.559Z,39.73
2023-03-14T07:03:49.358Z,40.03
2023-03-14T07:06:16.130Z,40.25
2023-03-14T07:08:43.154Z,40.38
2023-03-14T07:11:12.052Z,40.05
2023-03-14T07:13:40.223Z,40.17
2023-03-14T07:16:08.092Z,39.86
2023-03-14T07:18:34.910Z,40.01
2023-03-14T07:21:01.821Z,40.18
2023-03-14T07:23:28.647Z,40.06
2023-03-14T07:25:55.397Z,39.71
2023-03-14T07:28:22.340Z,39.70
2023-03-14T07:30:49.122Z,39.73
2023-03-14T07:33:16.908Z,38.57
2023-03-14T07:35:43.760Z,38.09
2023-03-14T07:38:10.559Z,37.92
2023-03-14T07:40:37.334Z,37.52
2023-03-14T07:43:04.121Z,37.11
2023-03-14T07:45:30.993Z,36.81
2023-03-14T07:47:58.738Z,36.04
2023-03-14T07:50:27.087Z,35.14
2023-03-14T07:52:54.579Z,33.70
2023-03-14T07:55:21.525Z,34.10
2023-03-14T07:57:48.953Z,34.10
2023-03-14T08:00:16.339Z,33.60
2023-03-14T08:02:43.582Z,32.97
2023-03-14T08:05:11.300Z,32.42
2023-03-14T08:07:38.089Z,32.97
2023-03-14T08:10:06.256Z,32.49
2023-03-14T08:12:32.997Z,32.61
2023-03-14T08:15:00.765Z,32.32
2023-03-14T08:17:28.859Z,31.68
2023-03-14T08:19:55.777Z,31.82
2023-03-14T08:22:22.707Z,31.71
2023-03-14T08:24:49.478Z,30.35
2023-03-14T08:27:16.248Z,31.12
2023-03-14T08:29:43.190Z,30.44
2023-03-14T08:32:10.000Z,30.36
2023-03-14T08:34:37.147Z,30.27
2023-03-14T08:37:08.605Z,30.61
2023-03-14T08:39:38.052Z,30.72
2023-03-14T08:42:04.937Z,30.42
2023-03-14T08:44:31.897Z,30.58
2023-03-14T08:46:58.848Z,30.44
2023-03-14T08:49:25.769Z,29.92
2023-03-14T08:51:52.579Z,29.60
2023-03-14T08:54:20.305Z,29.60
2023-03-14T08:56:47.051Z,30.06
2023-03-14T08:59:14.008Z,29.55
2023-03-14T09:01:40.879Z,29.03
2023-03-14T09:04:08.356Z,29.15
2023-03-14T09:06:35.319Z,29.33
2023-03-14T09:09:02.425Z,29.03
2023-03-14T09:11:29.237Z,30.11
2023-03-14T09:13:56.046Z,29.62
2023-03-14T09:16:22.927Z,29.98
2023-03-14T09:18:50.007Z,30.09
2023-03-14T09:21:16.809Z,29.42
2023-03-14T09:23:45.722Z,29.46
2023-03-14T09:26:13.534Z,29.65
2023-03-14T09:28:40.349Z,29.54
2023-03-14T09:31:12.051Z,30.73
2023-03-14T09:33:39.488Z,30.67
2023-03-14T09:36:08.886Z,30.68
2023-03-14T09:38:35.996Z,30.72
2023-03-14T09:41:13.452Z,30.84
2023-03-14T09:43:41.973Z,30.83
2023-03-14T09:46:12.406Z,30.86
2023-03-14T09:48:39.430Z,30.43
2023-03-14T09:51:14.001Z,31.22
2023-03-14T09:53:46.983Z,30.64
2023-03-14T09:56:21.672Z,30.81
2023-03-14T09:58:58.296Z,31.00
2023-03-14T10:01:32.603Z,30.38
2023-03-14T10:04:06.523Z,30.45
2023-03-14T10:06:33.638Z,30.92
2023-03-14T10:09:00.761Z,30.56
2023-03-14T10:11:27.534Z,30.81
2023-03-14T10:14:14.489Z,30.78
2023-03-14T10:16:46.765Z,30.96
2023-03-14T10:19:15.979Z,30.50
2023-03-14T10:21:53.437Z,31.03
2023-03-14T10:24:23.188Z,30.53
2023-03-14T10:27:05.797Z,30.62
2023-03-14T10:29:36.155Z,30.88
2023-03-14T10:32:08.900Z,31.58
2023-03-14T10:34:38.150Z,31.31
2023-03-14T10:37:08.125Z,31.65
2023-03-14T10:39:43.507Z,31.35
2023-03-14T10:42:35.899Z,31.24
2023-03-14T10:45:25.586Z,31.69
2023-03-14T10:47:52.991Z,31.09
2023-03-14T10:50:30.148Z,31.59
2023-03-14T10:53:02.648Z,31.34
2023-03-14T10:55:41.390Z,30.74
2023-03-14T10:58:30.932Z,30.48
2023-03-14T11:01:13.032Z,30.68
2023-03-14T11:03:46.265Z,30.76
2023-03-14T11:06:24.068Z,30.47
2023-03-14T11:08:58.545Z,30.67
2023-03-14T11:11:30.610Z,30.27
2023-03-14T11:14:31.166Z,30.08
2023-03-14T11:17:06.745Z,30.68
2023-03-14T11:19:39.596Z,30.87
2023-03-14T11:22:21.522Z,30.53
2023-03-14T11:25:02.090Z,30.94
2023-03-14T11:28:10.316Z,30.35
2023-03-14T11:30:48.327Z,30.27
2023-03-14T11:33:24.986Z,30.10
2023-03-14T11:36:07.819Z,30.27
2023-03-14T11:38:46.606Z,30.51
2023-03-14T11:41:28.988Z,30.87
2023-03-14T11:43:59.216Z,30.73
2023-03-14T11:46:29.254Z,30.02
2023-03-14T11:49:08.357Z,30.40
2023-03-14T11:51:40.677Z,30.36
2023-03-14T11:54:31.998Z,29.78
2023-03-14T11:57:05.637Z,30.41
2023-03-14T11:59:48.848Z,29.51
2023-03-14T12:02:33.856Z,29.00
2023-03-14T12:05:31.562Z,29.37
2023-03-14T12:08:10.733Z,29.14
2023-03-14T12:10:51.248Z,29.04
2023-03-14T12:13:18.803Z,28.63
2023-03-14T12:15:55.594Z,28.78
2023-03-14T12:18:32.567Z,27.78
2023-03-14T12:21:05.992Z,28.52
2023-03-14T12:23:52.460Z,27.99
2023-03-14T12:26:28.064Z,28.57
2023-03-14T12:28:57.980Z,28.53
2023-03-14T12:31:33.718Z,28.72
2023-03-14T12:34:12.508Z,28.93
2023-03-14T12:36:51.545Z,28.52
2023-03-14T12:39:24.761Z,28.40
2023-03-14T12:42:18.607Z,28.18
2023-03-14T12:44:50.721Z,28.22
2023-03-14T12:47:20.421Z,27.69
2023-03-14T12:49:55.396Z,28.27
2023-03-14T12:52:47.248Z,28.14
2023-03-14T12:55:37.857Z,28.11
2023-03-14T12:58:07.312Z,28.18
2023-03-14T13:00:36.836Z,28.29
2023-03-14T13:03:28.327Z,28.37
2023-03-14T13:05:56.660Z,28.14
2023-03-14T13:08:44.689Z,27.31
2023-03-14T13:11:20.233Z,27.67
2023-03-14T13:13:50.424Z,28.28
2023-03-14T13:16:20.667Z,28.10
2023-03-14T13:19:00.039Z,27.99
2023-03-14T13:21:29.206Z,28.40
2023-03-14T13:24:00.602Z,28.59
2023-03-14T13:26:35.173Z,28.71
2023-03-14T13:29:09.608Z,28.67
2023-03-14T13:31:36.349Z,28.69
2023-03-14T13:34:07.106Z,29.51
2023-03-14T13:36:36.487Z,28.41
2023-03-14T13:39:05.119Z,28.91
2023-03-14T13:41:31.804Z,29.05
2023-03-14T13:44:18.777Z,28.78
2023-03-14T13:46:45.503Z,29.57
2023-03-14T13:49:13.965Z,29.09
2023-03-14T13:51:41.085Z,29.63
2023-03-14T13:54:18.300Z,28.95
2023-03-14T13:56:45.551Z,29.09
2023-03-14T13:59:22.333Z,28.97
2023-03-14T14:01:49.584Z,29.01
2023-03-14T14:04:23.242Z,29.34
2023-03-14T14:07:00.218Z,29.39
2023-03-14T14:09:30.574Z,29.50
2023-03-14T14:12:15.008Z,29.47
2023-03-14T14:14:57.702Z,29.71
2023-03-14T14:17:52.025Z,29.40
2023-03-14T14:20:36.465Z,29.50
2023-03-14T14:23:06.258Z,29.66
2023-03-14T14:25:34.190Z,29.76
2023-03-14T14:28:18.235Z,29.17
2023-03-14T14:30:45.518Z,29.56
2023-03-14T14:33:23.624Z,29.79
2023-03-14T14:36:02.015Z,29.22
2023-03-14T14:38:33.328Z,29.82
2023-03-14T14:41:04.049Z,29.65
2023-03-14T14:43:37.668Z,29.54
2023-03-14T14:46:09.126Z,29.57
2023-03-14T14:48:39.332Z,29.76
2023-03-14T14:51:08.264Z,29.87
2023-03-14T14:53:40.234Z,29.69
2023-03-14T14:56:29.030Z,29.60
2023-03-14T14:59:06.548Z,29.93
2023-03-14T15:01:40.892Z,29.73
2023-03-14T15:04:15.010Z,29.87
2023-03-14T15:06:48.201Z,29.84
2023-03-14T15:09:15.475Z,29.78
2023-03-14T15:11:42.218Z,29.99
2023-03-14T15:14:09.018Z,30.25
2023-03-14T15:16:36.319Z,32.58
2023-03-14T15:19:23.545Z,34.29
2023-03-14T15:21:52.829Z,36.33
2023-03-14T15:24:19.578Z,37.38
2023-03-14T15:26:46.494Z,38.35
2023-03-14T15:29:13.910Z,40.66
2023-03-14T15:31:41.337Z,42.75
2023-03-14T15:34:09.493Z,44.47
2023-03-14T15:36:38.018Z,45.90
2023-03-14T15:39:07.222Z,45.62
2023-03-14T15:41:35.048Z,46.29
2023-03-14T15:44:02.057Z,49.46
2023-03-14T15:46:31.002Z,51.93
2023-03-14T15:48:58.321Z,54.19
2023-03-14T15:51:25.229Z,55.70
2023-03-14T15:53:52.974Z,56.81
2023-03-14T15:56:26.065Z,59.29
2023-03-14T15:58:53.169Z,64.43
2023-03-14T16:01:20.240Z,69.83
2023-03-14T16:03:47.758Z,73.79
2023-03-14T16:06:15.251Z,75.41
2023-03-14T16:08:43.530Z,75.60
2023-03-14T16:11:11.531Z,76.09
2023-03-14T16:13:39.340Z,74.93
2023-03-14T16:16:07.243Z,73.90
2023-03-14T16:18:36.261Z,75.75
2023-03-14T16:21:09.068Z,76.24
2023-03-14T16:23:36.519Z,76.53
2023-03-14T16:26:08.366Z,77.15
2023-03-14T16:28:35.287Z,77.39
2023-03-14T16:31:07.468Z,77.12
2023-03-14T16:33:36.246Z,77.70
2023-03-14T16:36:09.277Z,76.96
2023-03-14T16:38:38.502Z,76.85
2023-03-14T16:41:07.165Z,77.33
2023-03-14T16:43:37.636Z,77.90
2023-03-14T16:46:06.655Z,76.69
2023-03-14T16:48:33.965Z,76.13
2023-03-14T16:51:01.190Z,76.40
2023-03-14T16:53:30.399Z,76.55
2023-03-14T16:55:59.105Z,76.65
2023-03-14T16:58:26.660Z,76.93
2023-03-14T17:00:53.829Z,75.89
2023-03-14T17:03:21.763Z,76.08
2023-03-14T17:05:51.217Z,75.87
2023-03-14T17:08:19.800Z,76.29
2023-03-14T17:10:47.568Z,76.53
2023-03-14T17:13:15.012Z,77.34
2023-03-14T17:15:47.468Z,77.61
2023-03-14T17:18:14.574Z,77.84
2023-03-14T17:20:41.855Z,77.62
2023-03-14T17:23:09.518Z,78.92
2023-03-14T17:25:38.279Z,79.35
2023-03-14T17:28:07.713Z,78.70
2023-03-14T17:30:35.008Z,78.27
2023-03-14T17:33:03.167Z,78.31
2023-03-14T17:35:30.448Z,78.59
2023-03-14T17:37:58.453Z,77.92
2023-03-14T17:40:25.856Z,77.40
2023-03-14T17:42:53.639Z,78.09
2023-03-14T17:45:21.496Z,77.46
2023-03-14T17:47:48.695Z,78.28
2023-03-14T17:50:16.922Z,78.97
2023-03-14T17:52:45.293Z,79.72
2023-03-14T17:55:12.800Z,80.34
2023-03-14T17:57:40.610Z,79.52
2023-03-14T18:00:10.302Z,79.52
2023-03-14T18:02:38.521Z,79.10
2023-03-14T18:05:08.136Z,79.26
2023-03-14T18:07:36.516Z,79.99
2023-03-14T18:10:05.391Z,79.54
2023-03-14T18:12:34.586Z,80.76
2023-03-14T18:15:02.581Z,82.12
2023-03-14T18:17:30.404Z,84.05
2023-03-14T18:19:58.516Z,90.47
2023-03-14T18:22:26.482Z,93.10
2023-03-14T18:24:55.607Z,99.37
2023-03-14T18:27:23.330Z,100.00
2023-03-14T18:29:51.599Z,100.00
2023-03-14T18:32:19.205Z,100.00
2023-03-14T18:34:50.132Z,100.00
2023-03-14T18:37:18.046Z,100.00
2023-03-14T18:39:48.762Z,100.00
2023-03-14T18:42:17.701Z,100.00
2023-03-14T18:44:45.692Z,100.00
2023-03-14T18:47:13.628Z,100.00
2023-03-14T18:49:41.799Z,100.00
2023-03-14T18:52:09.590Z,100.00
2023-03-14T18:54:37.443Z,100.00
2023-03-14T18:57:05.138Z,100.00
2023-03-14T18:59:32.922Z,100.00
2023-03-14T19:02:00.550Z,100.00
2023-03-14T19:04:32.503Z,100.00
2023-03-14T19:07:00.473Z,100.00
2023-03-14T19:09:27.839Z,100.00
2023-03-14T19:11:55.835Z,100.00
2023-03-14T19:14:23.575Z,100.00
2023-03-14T19:16:51.006Z,100.00
2023-03-14T19:19:20.168Z,100.00
2023-03-14T19:21:48.136Z,100.00
2023-03-14T19:24:19.492Z,100.00
2023-03-14T19:26:47.062Z,100.00
2023-03-14T19:29:15.052Z,100.00
2023-03-14T19:31:43.375Z,100.00
2023-03-14T19:34:11.333Z,100.00
2023-03-14T19:36:39.166Z,100.00
2023-03-14T19:39:08.595Z,100.00
2023-03-14T19:41:36.791Z,100.00
2023-03-14T19:44:04.661Z,100.00
2023-03-14T19:46:33.948Z,100.00
2023-03-14T19:49:01.998Z,100.00
2023-03-14T19:51:32.137Z,100.00
2023-03-14T19:54:04.037Z,100.00
2023-03-14T19:56:32.121Z,100.00
2023-03-14T19:59:03.560Z,100.00
2023-03-14T20:01:32.532Z,100.00
2023-03-14T20:04:00.198Z,100.00
2023-03-14T20:06:27.498Z,100.00
2023-03-14T20:08:55.493Z,100.00
2023-03-14T20:11:23.477Z,100.00
2023-03-14T20:13:51.103Z,100.00
2023-03-14T20:16:18.482Z,100.00
2023-03-14T20:18:45.865Z,100.00
2023-03-14T20:21:13.521Z,100.00
2023-03-14T20:23:41.302Z,100.00
2023-03-14T20:26:09.250Z,100.00
2023-03-14T20:28:36.625Z,100.00
2023-03-14T20:31:07.297Z,100.00
2023-03-14T20:33:35.340Z,100.00
2023-03-14T20:36:03.010Z,100.00
2023-03-14T20:38:31.871Z,100.00
2023-03-14T20:41:00.146Z,100.00
2023-03-14T20:43:27.758Z,100.00
2023-03-14T20:45:56.304Z,100.00
2023-03-14T20:48:23.869Z,100.00
2023-03-14T20:50:50.590Z,100.00
2023-03-14T20:53:19.785Z,100.00
2023-03-14T20:55:46.811Z,100.00
2023-03-14T20:58:14.441Z,100.00
2023-03-14T21:00:45.882Z,100.00
2023-03-14T21:03:14.739Z,100.00
2023-03-14T21:05:42.577Z,100.00
2023-03-14T21:08:10.184Z,100.00
2023-03-14T21:10:37.085Z,100.00
2023-03-14T21:13:04.190Z,100.00
2023-03-14T21:15:31.416Z,100.00
2023-03-14T21:17:58.439Z,100.00
2023-03-14T21:20:28.572Z,100.00
2023-03-14T21:22:55.483Z,100.00
2023-03-14T21:25:22.512Z,100.00
2023-03-14T21:27:50.326Z,100.00
2023-03-14T21:30:17.892Z,100.00
2023-03-14T21:32:45.397Z,100.00
2023-03-14T21:35:12.157Z,100.00
2023-03-14T21:37:38.794Z,100.00
2023-03-14T21:40:09.135Z,100.00
2023-03-14T21:42:35.863Z,100.00
2023-03-14T21:45:02.897Z,100.00
2023-03-14T21:47:29.505Z,100.00
2023-03-14T21:49:56.188Z,100.00
2023-03-14T21:52:22.962Z,100.00
2023-03-14T21:54:49.648Z,100.00
2023-03-14T21:57:16.781Z,100.00
2023-03-14T21:59:44.454Z,100.00
2023-03-14T22:02:17.296Z,100.00
2023-03-14T22:04:44.120Z,100.00
2023-03-14T22:07:12.923Z,100.00
2023-03-14T22:09:40.566Z,100.00
2023-03-14T22:12:07.209Z,100.00
2023-03-14T22:14:33.763Z,100.00
2023-03-14T22:17:00.564Z,100.00
2023-03-14T22:19:27.427Z,100.00
2023-03-14T22:21:54.254Z,100.00
2023-03-14T22:24:20.816Z,100.00
2023-03-14T22:26:47.483Z,100.00
2023-03-14T22:29:14.449Z,100.00
2023-03-14T22:31:41.075Z,100.00
2023-03-14T22:34:07.681Z,100.00
2023-03-14T22:36:34.267Z,100.00
2023-03-14T22:39:00.842Z,100.00
2023-03-14T22:41:27.394Z,100.00
2023-03-14T22:43:55.000Z,100.00
2023-03-14T22:46:21.573Z,100.00
2023-03-14T22:48:48.120Z,100.00
2023-03-14T22:51:15.388Z,100.00
2023-03-14T22:53:41.997Z,100.00
2023-03-14T22:56:09.308Z,100.00
2023-03-14T22:58:35.978Z,100.00
2023-03-14T23:01:02.705Z,100.00
2023-03-14T23:03:29.353Z,100.00
2023-03-14T23:05:55.973Z,100.00
2023-03-14T23:08:22.702Z,100.00
2023-03-14T23:10:49.349Z,100.00
2023-03-14T23:13:16.114Z,100.00
2023-03-14T23:15:43.203Z,100.00
2023-03-14T23:18:11.482Z,100.00
2023-03-14T23:20:38.312Z,100.00
2023-03-14T23:23:08.460Z,100.00
2023-03-14T23:25:44.874Z,100.00
2023-03-14T23:28:19.126Z,100.00
2023-03-14T23:30:45.813Z,100.00
2023-03-14T23:33:12.362Z,100.00
2023-03-14T23:35:39.003Z,100.00
2023-03-14T23:38:05.591Z,100.00
2023-03-14T23:40:32.185Z,100.00
2023-03-14T23:42:58.781Z,100.00
2023-03-14T23:45:25.349Z,100.00
2023-03-14T23:47:51.864Z,100.00
2023-03-14T23:50:18.549Z,100.00
2023-03-14T23:52:45.089Z,100.00
2023-03-14T23:55:11.819Z,100.00
2023-03-14T23:57:38.455Z,100.00
